KSVH/SVH METAR and TAF weather

Enter ICAO airport designator
Station Type Date Time Source
KSVH METAR 2019/10/23 02:55 UTC NOAA

KSVH 230255Z AUTO 29005KT 10SM CLR 13/05 A2994 RMK AO2 T01290050


Station Type Date Time Source
KSVH Decoded METAR 2019/10/23 02:55 UTC NOAA

Statesville, Statesville Municipal Airport, NC, United States (KSVH) 35-45-55N 080-57-24W
Oct 22, 2019 - 10:55 PM EDT / 2019.10.23 0255 UTC
Wind: from the WNW (290 degrees) at 6 MPH (5 KT):0
Visibility: 10 mile(s):0
Sky conditions: clear
Temperature: 55.2 F (12.9 C)
Dew Point: 41.0 F (5.0 C)
Relative Humidity: 58%
Pressure (altimeter): 29.94 in. Hg (1013 hPa)
ob: KSVH 230255Z AUTO 29005KT 10SM CLR 13/05 A2994 RMK AO2 T01290050
cycle: 3

Station Type Date Time Source
KSVH TAF UTC NOAA

Error!

Example: see airport list